Time;durP1;ratioP1;P1;durP2;ratioP2;P2;SDS_P1;SDS_P2;PMS_P1;PMS_P2;Temp;Humidity;BMP_temperature;BMP_pressure;BME280_temperature;BME280_humidity;BME280_pressure;Samples;Min_cycle;Max_cycle;Signal;HPM_P1;HPM_P2
2024/01/11 00:01:44;;;;;;;;;;;21.00;30.00;;;;;;5036822;28;19932;-53
2024/01/11 00:04:11;;;;;;;;;;;21.00;30.00;;;;;;5036305;28;20016;-55
2024/01/11 00:06:45;;;;;;;;;;;21.00;30.00;;;;;;5036474;28;19932;-54
2024/01/11 00:09:12;;;;;;;;;;;21.00;30.00;;;;;;5036451;28;19925;-54
2024/01/11 00:11:39;;;;;;;;;;;21.00;30.00;;;;;;5036316;28;20389;-56
2024/01/11 00:14:06;;;;;;;;;;;21.00;29.90;;;;;;5036089;28;20440;-55
2024/01/11 00:16:33;;;;;;;;;;;21.00;29.90;;;;;;5036377;28;20019;-53
2024/01/11 00:19:00;;;;;;;;;;;21.00;29.90;;;;;;5036176;28;19932;-54
2024/01/11 00:21:27;;;;;;;;;;;21.00;29.90;;;;;;5019038;28;19926;-56
2024/01/11 00:23:54;;;;;;;;;;;21.00;29.90;;;;;;5035971;28;19952;-53
2024/01/11 00:26:21;;;;;;;;;;;21.00;29.80;;;;;;5018833;28;20375;-58
2024/01/11 00:28:48;;;;;;;;;;;21.00;29.80;;;;;;5016448;28;19925;-55
2024/01/11 00:31:15;;;;;;;;;;;21.00;29.80;;;;;;5016542;28;20425;-55
2024/01/11 00:33:42;;;;;;;;;;;21.00;29.80;;;;;;5015957;28;19964;-54
2024/01/11 00:36:09;;;;;;;;;;;21.00;29.80;;;;;;5016493;28;19925;-55
2024/01/11 00:38:36;;;;;;;;;;;21.00;29.80;;;;;;4998728;28;19925;-56
2024/01/11 00:41:03;;;;;;;;;;;21.00;29.80;;;;;;5016349;28;19926;-54
2024/01/11 00:43:30;;;;;;;;;;;21.00;29.80;;;;;;5015970;28;20012;-55
2024/01/11 00:45:57;;;;;;;;;;;20.90;29.80;;;;;;5016167;28;19925;-52
2024/01/11 00:48:24;;;;;;;;;;;20.90;29.80;;;;;;5016213;28;19929;-55
2024/01/11 00:50:51;;;;;;;;;;;20.90;29.80;;;;;;5015833;28;19926;-54
2024/01/11 00:53:18;;;;;;;;;;;20.90;29.80;;;;;;5015712;28;19949;-55
2024/01/11 00:55:45;;;;;;;;;;;20.90;29.80;;;;;;5015750;28;20413;-53
2024/01/11 00:58:12;;;;;;;;;;;20.90;29.80;;;;;;5016011;28;19933;-57
2024/01/11 01:00:39;;;;;;;;;;;20.90;29.80;;;;;;5015895;28;20383;-56
2024/01/11 01:03:06;;;;;;;;;;;20.90;29.70;;;;;;5015830;28;19925;-54
2024/01/11 01:05:33;;;;;;;;;;;20.90;29.80;;;;;;5015900;28;20302;-56
2024/01/11 01:08:00;;;;;;;;;;;20.90;29.80;;;;;;5015453;28;19926;-55
2024/01/11 01:10:27;;;;;;;;;;;20.90;29.70;;;;;;5015540;28;19925;-56
2024/01/11 01:12:54;;;;;;;;;;;20.80;29.70;;;;;;5015801;28;19936;-56
2024/01/11 01:15:21;;;;;;;;;;;20.90;29.80;;;;;;5015489;28;20274;-55
2024/01/11 01:17:48;;;;;;;;;;;20.80;29.70;;;;;;5015390;28;19932;-57
2024/01/11 01:20:15;;;;;;;;;;;20.80;29.70;;;;;;5015153;28;20390;-55
2024/01/11 01:22:42;;;;;;;;;;;20.80;29.70;;;;;;5015274;28;20008;-54
2024/01/11 01:25:09;;;;;;;;;;;20.80;29.60;;;;;;5015226;28;19980;-51
2024/01/11 01:27:36;;;;;;;;;;;20.80;29.70;;;;;;5015358;28;20365;-55
2024/01/11 01:30:03;;;;;;;;;;;20.80;29.70;;;;;;4998010;28;20330;-53
2024/01/11 01:32:30;;;;;;;;;;;20.90;29.70;;;;;;5015451;28;19949;-52
2024/01/11 01:34:58;;;;;;;;;;;20.90;29.70;;;;;;5015077;28;19925;-56
2024/01/11 01:37:25;;;;;;;;;;;20.90;29.60;;;;;;5014955;28;19925;-56
2024/01/11 01:39:51;;;;;;;;;;;20.90;30.00;;;;;;4997836;28;19948;-55
2024/01/11 01:42:18;;;;;;;;;;;20.90;29.60;;;;;;5015211;28;19971;-56
2024/01/11 01:44:45;;;;;;;;;;;20.90;29.50;;;;;;5014882;28;20039;-56
2024/01/11 01:47:12;;;;;;;;;;;20.90;29.60;;;;;;5015203;28;20294;-57
2024/01/11 01:49:39;;;;;;;;;;;20.80;29.50;;;;;;5015106;28;19926;-55
2024/01/11 01:52:07;;;;;;;;;;;20.80;29.50;;;;;;5014550;28;19933;-54
2024/01/11 01:54:34;;;;;;;;;;;20.80;29.50;;;;;;5014711;28;20338;-53
2024/01/11 01:57:01;;;;;;;;;;;20.80;29.50;;;;;;5023726;28;20293;-53
2024/01/11 01:59:29;;;;;;;;;;;20.80;29.50;;;;;;5034495;28;19931;-55
2024/01/11 02:01:56;;;;;;;;;;;20.80;29.50;;;;;;5034563;28;19932;-55
2024/01/11 02:04:23;;;;;;;;;;;20.80;29.60;;;;;;5034061;28;19925;-53
2024/01/11 02:06:51;;;;;;;;;;;20.80;29.60;;;;;;5034264;28;20325;-55
2024/01/11 02:09:18;;;;;;;;;;;20.80;29.60;;;;;;5034526;28;20343;-55
2024/01/11 02:11:45;;;;;;;;;;;20.80;29.60;;;;;;5034227;28;19925;-56
2024/01/11 02:14:12;;;;;;;;;;;20.80;29.60;;;;;;5033723;28;19936;-54
2024/01/11 02:16:39;;;;;;;;;;;20.70;29.50;;;;;;5033573;28;19932;-57
2024/01/11 02:19:06;;;;;;;;;;;20.70;29.50;;;;;;5033983;28;20601;-54
2024/01/11 02:21:34;;;;;;;;;;;20.70;29.50;;;;;;5033930;28;20024;-54
2024/01/11 02:24:04;;;;;;;;;;;20.70;29.50;;;;;;5033998;28;19928;-55
2024/01/11 02:26:32;;;;;;;;;;;20.70;29.50;;;;;;5014386;28;19925;-54
2024/01/11 02:28:59;;;;;;;;;;;20.70;29.50;;;;;;4996913;28;19932;-56
2024/01/11 02:31:26;;;;;;;;;;;20.70;29.50;;;;;;5014185;28;19926;-54
2024/01/11 02:33:53;;;;;;;;;;;20.70;29.40;;;;;;5013725;28;19925;-52
2024/01/11 02:36:21;;;;;;;;;;;20.70;29.50;;;;;;5014015;28;20024;-54
2024/01/11 02:38:48;;;;;;;;;;;20.70;29.50;;;;;;5013939;28;19932;-56
2024/01/11 02:41:16;;;;;;;;;;;20.70;29.40;;;;;;5013830;28;19933;-53
2024/01/11 02:43:47;;;;;;;;;;;20.80;29.40;;;;;;5014047;28;20302;-55
2024/01/11 02:46:17;;;;;;;;;;;20.70;29.40;;;;;;5013724;28;19941;-56
2024/01/11 02:48:44;;;;;;;;;;;20.70;29.30;;;;;;5013965;28;19976;-57
2024/01/11 02:51:11;;;;;;;;;;;20.70;29.30;;;;;;5013798;28;19925;-55
2024/01/11 02:53:38;;;;;;;;;;;20.70;29.30;;;;;;5014025;28;19925;-55
2024/01/11 02:56:05;;;;;;;;;;;20.70;29.30;;;;;;5013786;28;20318;-55
2024/01/11 02:58:32;;;;;;;;;;;20.70;29.30;;;;;;5013566;28;19933;-56
2024/01/11 03:00:59;;;;;;;;;;;20.70;29.30;;;;;;5013995;28;19996;-55
2024/01/11 03:03:26;;;;;;;;;;;20.70;29.40;;;;;;5013813;28;20345;-55
2024/01/11 03:05:53;;;;;;;;;;;20.70;29.30;;;;;;5013457;28;20012;-55
2024/01/11 03:08:20;;;;;;;;;;;20.70;29.30;;;;;;5013504;28;19925;-56
2024/01/11 03:10:47;;;;;;;;;;;20.70;29.30;;;;;;5013416;28;20450;-57
2024/01/11 03:13:14;;;;;;;;;;;20.60;29.30;;;;;;5013736;28;19929;-55
2024/01/11 03:15:41;;;;;;;;;;;20.60;29.30;;;;;;5013565;28;20023;-55
2024/01/11 03:18:09;;;;;;;;;;;20.60;29.30;;;;;;5013321;28;19979;-55
2024/01/11 03:20:36;;;;;;;;;;;20.60;29.30;;;;;;5013168;28;19925;-55
2024/01/11 03:23:03;;;;;;;;;;;20.60;29.30;;;;;;5013391;28;20397;-52
2024/01/11 03:25:30;;;;;;;;;;;20.60;29.70;;;;;;5013456;28;20004;-54
2024/01/11 03:27:58;;;;;;;;;;;20.60;29.30;;;;;;5015354;28;19961;-53
2024/01/11 03:30:25;;;;;;;;;;;20.60;29.30;;;;;;5017322;28;19933;-53
2024/01/11 03:32:53;;;;;;;;;;;20.60;29.30;;;;;;5017400;28;19925;-55
2024/01/11 03:35:20;;;;;;;;;;;20.60;29.30;;;;;;5017169;28;20291;-60
2024/01/11 03:37:47;;;;;;;;;;;20.60;29.30;;;;;;5017186;28;20398;-56
2024/01/11 03:40:14;;;;;;;;;;;20.60;29.30;;;;;;5017520;28;19960;-55
2024/01/11 03:42:41;;;;;;;;;;;20.60;29.30;;;;;;5017301;28;19932;-55
2024/01/11 03:45:08;;;;;;;;;;;20.60;29.30;;;;;;5016741;28;20008;-54
2024/01/11 03:47:35;;;;;;;;;;;20.60;29.20;;;;;;5024692;28;20342;-57
2024/01/11 03:50:03;;;;;;;;;;;20.60;29.20;;;;;;5025131;28;19925;-55
2024/01/11 03:52:30;;;;;;;;;;;20.70;29.20;;;;;;5027651;28;19926;-55
2024/01/11 03:54:57;;;;;;;;;;;20.70;29.10;;;;;;5026463;28;19929;-55
2024/01/11 03:57:24;;;;;;;;;;;20.60;29.10;;;;;;5022413;28;19957;-54
2024/01/11 03:59:51;;;;;;;;;;;20.60;29.10;;;;;;5016905;28;19925;-56
2024/01/11 04:02:18;;;;;;;;;;;20.60;29.10;;;;;;5016614;28;19932;-55
2024/01/11 04:04:45;;;;;;;;;;;20.60;29.10;;;;;;5016487;28;19936;-53
2024/01/11 04:07:12;;;;;;;;;;;20.60;29.10;;;;;;5016651;28;19976;-55
2024/01/11 04:09:39;;;;;;;;;;;20.60;29.00;;;;;;4999521;28;19930;-53
2024/01/11 04:12:07;;;;;;;;;;;20.60;29.10;;;;;;5016637;28;19933;-55
2024/01/11 04:14:37;;;;;;;;;;;20.60;29.10;;;;;;5016197;28;19929;-53
2024/01/11 04:17:04;;;;;;;;;;;20.60;29.10;;;;;;5016444;28;19933;-56
2024/01/11 04:19:31;;;;;;;;;;;20.50;29.10;;;;;;5016731;28;19926;-55
2024/01/11 04:21:58;;;;;;;;;;;20.50;29.10;;;;;;5016133;28;20016;-57
2024/01/11 04:24:25;;;;;;;;;;;20.50;29.10;;;;;;5016575;28;19931;-54
2024/01/11 04:26:51;;;;;;;;;;;20.50;29.10;;;;;;5019040;28;19960;-56
2024/01/11 04:29:18;;;;;;;;;;;20.50;29.10;;;;;;5036153;28;19925;-55
2024/01/11 04:31:45;;;;;;;;;;;20.50;29.10;;;;;;5035959;28;19929;-53
2024/01/11 04:34:12;;;;;;;;;;;20.50;29.10;;;;;;5035633;28;19975;-55
2024/01/11 04:36:39;;;;;;;;;;;20.50;29.10;;;;;;5023306;28;19933;-56
2024/01/11 04:39:07;;;;;;;;;;;20.50;29.10;;;;;;5015692;28;19937;-60
2024/01/11 04:41:36;;;;;;;;;;;20.50;28.90;;;;;;5015674;28;20548;-58
2024/01/11 04:44:04;;;;;;;;;;;20.50;28.70;;;;;;5018607;28;20012;-60
2024/01/11 04:46:31;;;;;;;;;;;20.50;28.60;;;;;;5032226;28;19925;-58
2024/01/11 04:48:57;;;;;;;;;;;20.50;28.40;;;;;;5035429;28;19983;-64
2024/01/11 04:51:25;;;;;;;;;;;20.50;28.40;;;;;;5035491;28;19932;-55
2024/01/11 04:53:52;;;;;;;;;;;20.50;28.80;;;;;;5035639;28;19925;-62
2024/01/11 04:56:19;;;;;;;;;;;20.50;28.70;;;;;;5035364;28;19925;-61
2024/01/11 04:58:46;;;;;;;;;;;20.60;28.30;;;;;;5035691;28;19933;-56
2024/01/11 05:01:13;;;;;;;;;;;20.60;28.30;;;;;;5035362;28;20439;-57
2024/01/11 05:03:41;;;;;;;;;;;20.60;28.20;;;;;;5035188;28;19933;-58
2024/01/11 05:06:14;;;;;;;;;;;20.60;28.10;;;;;;5035334;28;20279;-56
2024/01/11 05:08:41;;;;;;;;;;;20.70;28.10;;;;;;5035498;28;19925;-54
2024/01/11 05:11:14;;;;;;;;;;;20.70;28.10;;;;;;5035506;28;20306;-54
2024/01/11 05:13:41;;;;;;;;;;;20.70;28.10;;;;;;5035402;28;19925;-50
2024/01/11 05:16:16;;;;;;;;;;;20.70;28.10;;;;;;5034774;28;20472;-58
2024/01/11 05:18:43;;;;;;;;;;;20.70;28.10;;;;;;5028431;28;20048;-54
2024/01/11 05:21:10;;;;;;;;;;;20.70;28.10;;;;;;5026325;28;19926;-56
2024/01/11 05:23:37;;;;;;;;;;;20.60;28.00;;;;;;5023370;28;19932;-56
2024/01/11 05:26:04;;;;;;;;;;;20.70;28.10;;;;;;5024453;28;19931;-56
2024/01/11 05:28:31;;;;;;;;;;;20.70;28.10;;;;;;5025223;28;19932;-56
2024/01/11 05:30:58;;;;;;;;;;;20.60;28.10;;;;;;5026611;28;19925;-54
2024/01/11 05:33:25;;;;;;;;;;;20.60;28.10;;;;;;5032259;28;19925;-56
2024/01/11 05:35:53;;;;;;;;;;;20.60;28.20;;;;;;5018992;28;19929;-51
2024/01/11 05:38:20;;;;;;;;;;;20.60;28.20;;;;;;5016990;28;19925;-54
2024/01/11 05:40:47;;;;;;;;;;;20.60;28.20;;;;;;5019408;28;20020;-54
2024/01/11 05:43:14;;;;;;;;;;;20.60;28.20;;;;;;5018477;28;20404;-55
2024/01/11 05:45:41;;;;;;;;;;;20.60;28.20;;;;;;5030934;28;19925;-56
2024/01/11 05:48:14;;;;;;;;;;;20.60;28.30;;;;;;5034174;28;19929;-57
2024/01/11 05:50:42;;;;;;;;;;;20.60;28.30;;;;;;5033428;28;19933;-56
2024/01/11 05:53:09;;;;;;;;;;;20.70;28.30;;;;;;5032665;28;19932;-56
2024/01/11 05:55:36;;;;;;;;;;;20.70;28.20;;;;;;5033216;28;20046;-52
2024/01/11 05:58:03;;;;;;;;;;;20.70;28.20;;;;;;5018600;28;19980;-49
2024/01/11 06:00:30;;;;;;;;;;;20.70;28.20;;;;;;5019198;28;20015;-55
2024/01/11 06:02:56;;;;;;;;;;;20.70;28.30;;;;;;5028185;28;19929;-52
2024/01/11 06:05:25;;;;;;;;;;;20.70;28.20;;;;;;5032548;28;19925;-49
2024/01/11 06:07:52;;;;;;;;;;;20.80;28.30;;;;;;5032382;28;19925;-53
2024/01/11 06:10:19;;;;;;;;;;;20.80;28.20;;;;;;5031373;28;19925;-54
2024/01/11 06:12:46;;;;;;;;;;;20.80;28.20;;;;;;5033019;28;19982;-56
2024/01/11 06:15:13;;;;;;;;;;;20.80;28.10;;;;;;5019339;28;20329;-59
2024/01/11 06:17:40;;;;;;;;;;;20.90;28.20;;;;;;5018304;28;20267;-48
2024/01/11 06:20:09;;;;;;;;;;;20.90;28.20;;;;;;5028977;28;19979;-55
2024/01/11 06:22:36;;;;;;;;;;;20.80;28.20;;;;;;5020550;28;20616;-51
2024/01/11 06:25:03;;;;;;;;;;;20.80;28.60;;;;;;5007241;28;19925;-58
2024/01/11 06:27:30;;;;;;;;;;;20.90;28.80;;;;;;5003509;28;20044;-60
2024/01/11 06:29:58;;;;;;;;;;;20.90;28.90;;;;;;5020548;28;20027;-59
2024/01/11 06:32:25;;;;;;;;;;;21.00;29.10;;;;;;5006286;28;19925;-60
2024/01/11 06:34:52;;;;;;;;;;;21.00;29.20;;;;;;5022251;28;20393;-59
2024/01/11 06:37:20;;;;;;;;;;;21.00;29.20;;;;;;5024371;28;19968;-59
2024/01/11 06:39:47;;;;;;;;;;;21.10;29.40;;;;;;5023862;28;20405;-60
2024/01/11 06:42:14;;;;;;;;;;;21.10;29.40;;;;;;5019087;28;19936;-60
2024/01/11 06:44:41;;;;;;;;;;;21.20;29.60;;;;;;5020512;28;19962;-58
2024/01/11 06:47:08;;;;;;;;;;;21.20;29.60;;;;;;5017524;28;20075;-58
2024/01/11 06:49:38;;;;;;;;;;;21.30;29.50;;;;;;4999610;28;19925;-59
2024/01/11 06:52:05;;;;;;;;;;;21.30;29.40;;;;;;5015292;28;19930;-56
2024/01/11 06:54:32;;;;;;;;;;;21.30;29.40;;;;;;5021525;28;19929;-58
2024/01/11 06:56:59;;;;;;;;;;;21.30;29.40;;;;;;5023031;28;19957;-62
2024/01/11 06:59:26;;;;;;;;;;;21.30;29.40;;;;;;5020728;28;19929;-57
2024/01/11 07:01:53;;;;;;;;;;;21.40;29.50;;;;;;5025510;28;19932;-58
2024/01/11 07:04:20;;;;;;;;;;;21.50;29.60;;;;;;5019039;28;19968;-57
2024/01/11 07:06:48;;;;;;;;;;;21.50;29.50;;;;;;5020729;28;19930;-56
2024/01/11 07:09:16;;;;;;;;;;;21.50;29.50;;;;;;5021521;28;19979;-59
2024/01/11 07:11:44;;;;;;;;;;;21.60;29.40;;;;;;5020282;28;20039;-58
2024/01/11 07:14:11;;;;;;;;;;;21.60;29.20;;;;;;5006770;28;19936;-60
2024/01/11 07:16:38;;;;;;;;;;;21.60;29.50;;;;;;5015609;28;19929;-59
2024/01/11 07:19:06;;;;;;;;;;;21.70;29.60;;;;;;5021859;28;19925;-59
2024/01/11 07:21:33;;;;;;;;;;;21.70;29.60;;;;;;5019998;28;19929;-57
2024/01/11 07:24:00;;;;;;;;;;;21.70;29.50;;;;;;5019865;28;19979;-58
2024/01/11 07:26:27;;;;;;;;;;;21.70;29.40;;;;;;5021505;28;20353;-59
2024/01/11 07:28:57;;;;;;;;;;;21.70;29.30;;;;;;5017839;28;20428;-59
2024/01/11 07:31:24;;;;;;;;;;;21.80;29.30;;;;;;5018833;28;19980;-57
2024/01/11 07:33:51;;;;;;;;;;;21.70;29.20;;;;;;5017814;28;20429;-57
2024/01/11 07:36:18;;;;;;;;;;;21.80;29.20;;;;;;5015926;28;19925;-58
2024/01/11 07:38:45;;;;;;;;;;;21.80;29.20;;;;;;5014893;28;20382;-58
2024/01/11 07:41:13;;;;;;;;;;;21.80;29.20;;;;;;5023033;28;19930;-57
2024/01/11 07:43:40;;;;;;;;;;;21.80;29.00;;;;;;5019556;28;20436;-57
2024/01/11 07:46:20;;;;;;;;;;;21.80;28.90;;;;;;5004029;28;21433;-58
2024/01/11 07:49:02;;;;;;;;;;;21.80;28.80;;;;;;5008556;28;19987;-59
2024/01/11 07:51:29;;;;;;;;;;;21.80;28.70;;;;;;5020862;28;19934;-57
2024/01/11 07:53:56;;;;;;;;;;;21.70;28.90;;;;;;5021303;28;19940;-59
2024/01/11 07:56:23;;;;;;;;;;;21.80;29.30;;;;;;5022078;28;20366;-59
2024/01/11 07:58:50;;;;;;;;;;;21.80;28.80;;;;;;5006547;28;19971;-58
2024/01/11 08:01:17;;;;;;;;;;;21.90;28.90;;;;;;5018371;28;19925;-59
2024/01/11 08:03:47;;;;;;;;;;;21.90;29.00;;;;;;5020039;28;19930;-58
2024/01/11 08:06:14;;;;;;;;;;;22.00;29.00;;;;;;5016046;28;20410;-59
2024/01/11 08:08:42;;;;;;;;;;;22.00;29.00;;;;;;5021642;28;19975;-59
2024/01/11 08:11:12;;;;;;;;;;;22.10;29.00;;;;;;5016735;28;20059;-59
2024/01/11 08:13:39;;;;;;;;;;;22.20;29.00;;;;;;4998482;28;19940;-61
2024/01/11 08:16:09;;;;;;;;;;;22.30;29.00;;;;;;5022014;28;19926;-57
2024/01/11 08:18:36;;;;;;;;;;;22.40;28.90;;;;;;5023477;28;19929;-57
2024/01/11 08:21:06;;;;;;;;;;;22.50;28.90;;;;;;5018816;28;20402;-59
2024/01/11 08:23:33;;;;;;;;;;;22.60;28.80;;;;;;5024225;28;19929;-58
2024/01/11 08:26:00;;;;;;;;;;;22.70;28.80;;;;;;5023316;28;20387;-58
2024/01/11 08:28:27;;;;;;;;;;;22.80;29.20;;;;;;5026749;28;19941;-60
2024/01/11 08:30:56;;;;;;;;;;;22.80;28.70;;;;;;5026311;28;20060;-60
2024/01/11 08:33:23;;;;;;;;;;;22.90;28.70;;;;;;5021257;28;20330;-60
2024/01/11 08:35:50;;;;;;;;;;;23.00;28.70;;;;;;5027263;28;19925;-58
2024/01/11 08:38:17;;;;;;;;;;;23.10;28.60;;;;;;5020801;28;20080;-60
2024/01/11 08:40:44;;;;;;;;;;;23.10;28.60;;;;;;5024250;28;19983;-60
2024/01/11 08:43:12;;;;;;;;;;;23.20;28.60;;;;;;5020091;28;20029;-57
2024/01/11 08:45:39;;;;;;;;;;;23.30;28.50;;;;;;5019670;28;19940;-57
2024/01/11 08:48:06;;;;;;;;;;;23.30;28.50;;;;;;5021192;28;19937;-58
2024/01/11 08:50:33;;;;;;;;;;;23.40;28.50;;;;;;5020262;28;20456;-60
2024/01/11 08:53:00;;;;;;;;;;;23.40;28.50;;;;;;5019868;28;20579;-58
2024/01/11 08:55:31;;;;;;;;;;;23.50;28.30;;;;;;5019819;28;20378;-61
2024/01/11 08:57:58;;;;;;;;;;;23.60;28.30;;;;;;5018444;28;19929;-61
2024/01/11 09:00:26;;;;;;;;;;;23.70;28.30;;;;;;5013357;28;19925;-63
2024/01/11 09:02:56;;;;;;;;;;;23.70;28.30;;;;;;5019408;28;21024;-62
2024/01/11 09:05:24;;;;;;;;;;;23.80;28.20;;;;;;5006066;28;19933;-61
2024/01/11 09:07:51;;;;;;;;;;;23.80;28.20;;;;;;5020651;28;19987;-60
2024/01/11 09:10:20;;;;;;;;;;;23.90;28.20;;;;;;5017093;28;19992;-62
2024/01/11 09:12:47;;;;;;;;;;;23.90;28.10;;;;;;5022057;28;20398;-61
2024/01/11 09:15:14;;;;;;;;;;;24.00;28.20;;;;;;5022232;28;19929;-61
2024/01/11 09:17:41;;;;;;;;;;;24.00;28.20;;;;;;5020299;28;20394;-59
2024/01/11 09:20:09;;;;;;;;;;;24.10;28.30;;;;;;5024339;28;19979;-61
2024/01/11 09:22:36;;;;;;;;;;;24.10;28.20;;;;;;5021687;28;19940;-62
2024/01/11 09:25:03;;;;;;;;;;;24.20;28.20;;;;;;5026226;28;20232;-61
2024/01/11 09:27:30;;;;;;;;;;;24.20;28.10;;;;;;5021170;28;19933;-61
2024/01/11 09:29:57;;;;;;;;;;;24.30;28.20;;;;;;5024201;28;19956;-61
2024/01/11 09:32:25;;;;;;;;;;;24.30;28.10;;;;;;5020401;28;19944;-60
2024/01/11 09:34:52;;;;;;;;;;;24.30;28.00;;;;;;5019997;28;20439;-59
2024/01/11 09:37:20;;;;;;;;;;;24.40;28.00;;;;;;5020040;28;20437;-57
2024/01/11 09:39:47;;;;;;;;;;;24.50;27.90;;;;;;5022713;28;20444;-63
2024/01/11 09:42:14;;;;;;;;;;;24.50;27.90;;;;;;5022015;28;19947;-61
2024/01/11 09:44:41;;;;;;;;;;;24.50;28.00;;;;;;5025466;28;19925;-60
2024/01/11 09:47:10;;;;;;;;;;;24.60;27.90;;;;;;5022522;28;19929;-58
2024/01/11 09:49:43;;;;;;;;;;;24.70;28.00;;;;;;5019053;28;20051;-56
2024/01/11 09:52:12;;;;;;;;;;;24.70;28.00;;;;;;5022488;28;19932;-59
2024/01/11 09:54:40;;;;;;;;;;;24.80;28.10;;;;;;5017517;28;20012;-58
2024/01/11 09:57:09;;;;;;;;;;;24.80;28.10;;;;;;5017277;28;19964;-60
2024/01/11 09:59:36;;;;;;;;;;;24.90;27.90;;;;;;5020228;28;20000;-60
2024/01/11 10:02:05;;;;;;;;;;;24.90;27.90;;;;;;5021526;28;19929;-60
2024/01/11 10:04:33;;;;;;;;;;;25.00;27.80;;;;;;5018253;28;20492;-60
2024/01/11 10:07:02;;;;;;;;;;;25.00;27.90;;;;;;5022757;28;20412;-60
2024/01/11 10:09:29;;;;;;;;;;;25.10;27.80;;;;;;5020976;28;19952;-60
2024/01/11 10:11:56;;;;;;;;;;;25.10;27.70;;;;;;5021566;28;19940;-60
2024/01/11 10:14:23;;;;;;;;;;;25.20;27.50;;;;;;5022324;28;20023;-60
2024/01/11 10:16:50;;;;;;;;;;;25.20;27.60;;;;;;5021628;28;20008;-60
2024/01/11 10:19:18;;;;;;;;;;;25.20;27.60;;;;;;5017774;28;19930;-60
2024/01/11 10:21:46;;;;;;;;;;;25.20;27.40;;;;;;5016606;28;19941;-60
2024/01/11 10:24:26;;;;;;;;;;;25.30;27.30;;;;;;5020828;28;19960;-60
2024/01/11 10:26:57;;;;;;;;;;;25.30;27.30;;;;;;5019274;28;20024;-59
2024/01/11 10:29:30;;;;;;;;;;;25.30;27.20;;;;;;5022446;28;19952;-60
2024/01/11 10:31:57;;;;;;;;;;;25.30;27.30;;;;;;5023657;28;20020;-59
2024/01/11 10:34:24;;;;;;;;;;;25.40;27.30;;;;;;5022880;28;20400;-60
2024/01/11 10:36:52;;;;;;;;;;;25.40;27.20;;;;;;5016791;28;19976;-59
2024/01/11 10:39:21;;;;;;;;;;;25.40;27.20;;;;;;5020462;28;19933;-59
2024/01/11 10:41:51;;;;;;;;;;;25.40;27.20;;;;;;5021332;28;20440;-60
2024/01/11 10:44:19;;;;;;;;;;;25.50;27.20;;;;;;5021377;28;19938;-60
2024/01/11 10:46:47;;;;;;;;;;;25.50;27.20;;;;;;5020749;28;19933;-59
2024/01/11 10:49:17;;;;;;;;;;;25.50;27.10;;;;;;5019318;28;19936;-60
2024/01/11 10:51:58;;;;;;;;;;;25.60;27.10;;;;;;5014265;28;19925;-59
2024/01/11 10:54:26;;;;;;;;;;;25.60;27.10;;;;;;5019930;28;20039;-60
2024/01/11 10:56:54;;;;;;;;;;;25.60;27.10;;;;;;5022698;28;19945;-60
2024/01/11 10:59:25;;;;;;;;;;;25.60;27.30;;;;;;5021826;28;20084;-60
2024/01/11 11:01:54;;;;;;;;;;;25.70;27.80;;;;;;5018572;28;19933;-61
2024/01/11 11:04:22;;;;;;;;;;;25.70;27.50;;;;;;5017168;28;19933;-60
2024/01/11 11:06:50;;;;;;;;;;;25.70;27.40;;;;;;5022641;28;20433;-61
2024/01/11 11:09:18;;;;;;;;;;;25.70;27.30;;;;;;5022038;28;19939;-60
2024/01/11 11:11:45;;;;;;;;;;;25.70;27.10;;;;;;5020461;28;20032;-60
2024/01/11 11:14:14;;;;;;;;;;;25.80;27.20;;;;;;5019413;28;20020;-60
2024/01/11 11:16:42;;;;;;;;;;;25.80;27.30;;;;;;5021274;28;19932;-59
2024/01/11 11:19:09;;;;;;;;;;;25.80;27.20;;;;;;5024051;28;19951;-58
2024/01/11 11:21:43;;;;;;;;;;;25.80;27.10;;;;;;5025364;28;19937;-54
2024/01/11 11:24:11;;;;;;;;;;;25.80;27.00;;;;;;5022881;28;19947;-57
2024/01/11 11:26:38;;;;;;;;;;;25.80;27.00;;;;;;5023724;28;20413;-58
2024/01/11 11:29:05;;;;;;;;;;;25.90;27.00;;;;;;5020931;28;20357;-57
2024/01/11 11:31:43;;;;;;;;;;;25.90;27.00;;;;;;5024104;28;19932;-58
2024/01/11 11:34:14;;;;;;;;;;;25.90;27.10;;;;;;5003207;28;19925;-58
2024/01/11 11:36:42;;;;;;;;;;;25.90;27.10;;;;;;5019304;28;19925;-58
2024/01/11 11:39:13;;;;;;;;;;;25.90;27.00;;;;;;5018944;28;19936;-60
2024/01/11 11:41:42;;;;;;;;;;;25.90;26.90;;;;;;5016330;28;19929;-62
2024/01/11 11:44:12;;;;;;;;;;;25.90;26.90;;;;;;5020193;28;20313;-61
2024/01/11 11:46:39;;;;;;;;;;;25.90;26.90;;;;;;5024176;28;19937;-60
2024/01/11 11:49:06;;;;;;;;;;;25.90;26.70;;;;;;5019890;28;19975;-61
2024/01/11 11:51:34;;;;;;;;;;;25.90;26.60;;;;;;5029123;28;19936;-60
2024/01/11 11:54:02;;;;;;;;;;;25.90;26.80;;;;;;5024446;28;19936;-61
2024/01/11 11:56:30;;;;;;;;;;;25.80;26.60;;;;;;5024106;28;19965;-60
2024/01/11 11:58:58;;;;;;;;;;;25.80;26.80;;;;;;5022871;28;19929;-61
2024/01/11 12:01:25;;;;;;;;;;;25.70;26.80;;;;;;5022153;28;20410;-60
2024/01/11 12:03:52;;;;;;;;;;;25.70;27.00;;;;;;5004509;28;20306;-60
2024/01/11 12:06:20;;;;;;;;;;;25.60;27.00;;;;;;5023068;28;19933;-60
2024/01/11 12:08:48;;;;;;;;;;;25.60;27.00;;;;;;5024223;28;19971;-61
2024/01/11 12:11:17;;;;;;;;;;;25.50;27.00;;;;;;5027370;28;19959;-60
2024/01/11 12:13:45;;;;;;;;;;;25.40;27.10;;;;;;5005061;28;19925;-60
2024/01/11 12:16:12;;;;;;;;;;;25.40;27.10;;;;;;5020949;28;19980;-60
2024/01/11 12:18:39;;;;;;;;;;;25.40;27.20;;;;;;5023603;28;19968;-60
2024/01/11 12:21:07;;;;;;;;;;;25.30;27.20;;;;;;5021147;28;19976;-60
2024/01/11 12:23:35;;;;;;;;;;;25.30;27.30;;;;;;5027953;28;19941;-60
2024/01/11 12:26:04;;;;;;;;;;;25.20;27.20;;;;;;5023227;28;19925;-60
2024/01/11 12:28:32;;;;;;;;;;;25.20;27.30;;;;;;5022597;28;20023;-61
2024/01/11 12:31:00;;;;;;;;;;;25.10;27.30;;;;;;5027274;28;19939;-61
2024/01/11 12:33:28;;;;;;;;;;;25.10;27.40;;;;;;5029647;28;20474;-61
2024/01/11 12:35:55;;;;;;;;;;;25.10;27.40;;;;;;5025449;28;20013;-60
2024/01/11 12:38:22;;;;;;;;;;;25.10;27.50;;;;;;5019984;28;19940;-61
2024/01/11 12:40:49;;;;;;;;;;;25.10;27.50;;;;;;5024788;28;20330;-60
2024/01/11 12:43:16;;;;;;;;;;;25.00;27.40;;;;;;5024069;28;19932;-61
2024/01/11 12:45:44;;;;;;;;;;;25.00;27.30;;;;;;5023508;28;20379;-62
2024/01/11 12:48:14;;;;;;;;;;;24.90;27.30;;;;;;5025317;28;20274;-60
2024/01/11 12:50:41;;;;;;;;;;;24.90;27.30;;;;;;5018146;28;19956;-62
2024/01/11 12:53:12;;;;;;;;;;;24.90;27.30;;;;;;5023829;28;19940;-60
2024/01/11 12:55:39;;;;;;;;;;;24.90;27.50;;;;;;5021217;28;20041;-59
2024/01/11 12:58:22;;;;;;;;;;;24.90;27.60;;;;;;5020545;28;19991;-60
2024/01/11 13:00:49;;;;;;;;;;;24.90;27.70;;;;;;5021366;28;20378;-60
2024/01/11 13:03:16;;;;;;;;;;;24.90;27.70;;;;;;5017201;28;21659;-60
2024/01/11 13:05:43;;;;;;;;;;;24.80;27.60;;;;;;5023024;28;20271;-60
2024/01/11 13:08:11;;;;;;;;;;;24.80;27.70;;;;;;5005005;28;19933;-57
2024/01/11 13:10:38;;;;;;;;;;;24.80;27.80;;;;;;5023422;28;19926;-59
2024/01/11 13:13:05;;;;;;;;;;;24.80;28.00;;;;;;5027292;28;19925;-57
2024/01/11 13:15:36;;;;;;;;;;;24.80;28.10;;;;;;5029624;28;20388;-61
2024/01/11 13:18:05;;;;;;;;;;;24.80;28.20;;;;;;5026721;28;19971;-59
2024/01/11 13:20:32;;;;;;;;;;;24.90;28.30;;;;;;5027225;28;19940;-57
2024/01/11 13:23:16;;;;;;;;;;;24.90;28.40;;;;;;5026730;28;19975;-60
2024/01/11 13:25:43;;;;;;;;;;;24.80;28.40;;;;;;5025957;28;19936;-56
2024/01/11 13:28:11;;;;;;;;;;;24.80;28.40;;;;;;5028061;28;20388;-57
2024/01/11 13:30:39;;;;;;;;;;;24.80;28.40;;;;;;5030999;28;19939;-59
2024/01/11 13:33:07;;;;;;;;;;;24.80;28.50;;;;;;5028650;28;20298;-61
2024/01/11 13:35:35;;;;;;;;;;;24.80;28.60;;;;;;5021773;28;19929;-60
2024/01/11 13:38:02;;;;;;;;;;;24.80;28.60;;;;;;5007995;28;19936;-60
2024/01/11 13:40:33;;;;;;;;;;;24.80;28.50;;;;;;5008212;28;20029;-61
2024/01/11 13:43:01;;;;;;;;;;;24.70;28.40;;;;;;5027010;28;19929;-60
2024/01/11 13:45:29;;;;;;;;;;;24.80;28.70;;;;;;5028533;28;19929;-60
2024/01/11 13:47:57;;;;;;;;;;;24.70;28.70;;;;;;5022747;28;20020;-60
2024/01/11 13:50:24;;;;;;;;;;;24.80;28.50;;;;;;5021297;28;19933;-60
2024/01/11 13:52:52;;;;;;;;;;;24.70;28.40;;;;;;5025026;28;20082;-59
2024/01/11 13:55:21;;;;;;;;;;;24.70;28.50;;;;;;5024799;28;19933;-61
2024/01/11 13:57:52;;;;;;;;;;;24.70;28.60;;;;;;5027887;28;19929;-60
2024/01/11 14:00:19;;;;;;;;;;;24.70;28.60;;;;;;5024266;28;19933;-60
2024/01/11 14:02:47;;;;;;;;;;;24.70;28.50;;;;;;5006711;28;19952;-61
2024/01/11 14:05:17;;;;;;;;;;;24.70;28.40;;;;;;5024268;28;20286;-60
2024/01/11 14:07:45;;;;;;;;;;;24.60;28.30;;;;;;5025330;28;19929;-61
2024/01/11 14:10:13;;;;;;;;;;;24.50;28.20;;;;;;5024716;28;20354;-58
2024/01/11 14:12:40;;;;;;;;;;;24.50;28.10;;;;;;5027925;28;19947;-57
2024/01/11 14:15:12;;;;;;;;;;;24.50;27.90;;;;;;5024861;28;19925;-61
2024/01/11 14:17:40;;;;;;;;;;;24.50;27.70;;;;;;5024333;28;19929;-62
2024/01/11 14:20:13;;;;;;;;;;;24.40;27.60;;;;;;5027256;28;20491;-64